createdAt,value
2018-07-21T00:00:39.661Z,82.51
2018-07-21T00:03:44.034Z,82.85
2018-07-21T00:06:48.404Z,82.07
2018-07-21T00:09:52.709Z,81.98
2018-07-21T00:12:57.105Z,81.23
2018-07-21T00:16:02.419Z,81.16
2018-07-21T00:19:06.965Z,80.46
2018-07-21T00:22:11.252Z,81.14
2018-07-21T00:25:15.674Z,81.60
2018-07-21T00:28:19.995Z,82.90
2018-07-21T00:31:24.297Z,83.73
2018-07-21T00:34:28.608Z,83.35
2018-07-21T00:37:32.875Z,82.07
2018-07-21T00:40:37.167Z,80.21
2018-07-21T00:43:41.447Z,79.86
2018-07-21T00:46:45.855Z,79.93
2018-07-21T00:49:50.293Z,81.95
2018-07-21T00:52:54.784Z,84.28
2018-07-21T00:55:59.098Z,85.78
2018-07-21T00:59:03.508Z,86.59
2018-07-21T01:02:07.852Z,86.58
2018-07-21T01:05:12.243Z,86.54
2018-07-21T01:08:16.654Z,87.18
2018-07-21T01:11:20.973Z,86.50
2018-07-21T01:14:25.420Z,86.32
2018-07-21T01:17:29.977Z,85.88
2018-07-21T01:20:34.363Z,86.10
2018-07-21T01:23:38.801Z,85.95
2018-07-21T01:26:43.212Z,85.92
2018-07-21T01:29:47.555Z,85.81
2018-07-21T01:32:52.048Z,87.16
2018-07-21T01:35:56.483Z,87.94
2018-07-21T01:39:00.959Z,88.44
2018-07-21T01:42:05.332Z,88.58
2018-07-21T01:45:09.733Z,88.95
2018-07-21T01:48:14.135Z,89.62
2018-07-21T01:51:18.590Z,90.58
2018-07-21T01:54:23.026Z,90.89
2018-07-21T01:57:27.578Z,91.30
2018-07-21T02:00:31.871Z,91.28
2018-07-21T02:03:36.375Z,90.50
2018-07-21T02:06:40.768Z,89.67
2018-07-21T02:09:45.639Z,90.22
2018-07-21T02:12:49.947Z,90.51
2018-07-21T02:15:54.249Z,89.14
2018-07-21T02:18:58.793Z,89.07
2018-07-21T02:22:03.248Z,89.83
2018-07-21T02:25:07.988Z,91.12
2018-07-21T02:28:12.381Z,91.60
2018-07-21T02:31:16.977Z,91.26
2018-07-21T02:34:21.240Z,91.31
2018-07-21T02:37:25.532Z,90.98
2018-07-21T02:40:29.903Z,91.36
2018-07-21T02:43:34.214Z,91.47
2018-07-21T02:46:38.530Z,92.16
2018-07-21T02:49:43.067Z,92.36
2018-07-21T02:52:47.487Z,92.31
2018-07-21T02:55:51.883Z,92.99
2018-07-21T02:58:56.636Z,92.65
2018-07-21T03:02:01.187Z,92.36
2018-07-21T03:05:05.776Z,92.17
2018-07-21T03:08:10.193Z,93.06
2018-07-21T03:11:14.811Z,93.25
2018-07-21T03:14:19.461Z,93.26
2018-07-21T03:17:23.892Z,93.13
2018-07-21T03:20:28.361Z,93.70
2018-07-21T03:23:32.713Z,93.22
2018-07-21T03:26:37.044Z,93.19
2018-07-21T03:29:41.453Z,93.09
2018-07-21T03:32:46.145Z,92.95
2018-07-21T03:35:50.661Z,92.92
2018-07-21T03:38:55.080Z,92.25
2018-07-21T03:41:59.598Z,92.07
2018-07-21T03:45:04.134Z,91.30
2018-07-21T03:48:08.552Z,90.06
2018-07-21T03:51:12.993Z,89.15
2018-07-21T03:54:17.351Z,88.26
2018-07-21T03:57:21.541Z,87.85
2018-07-21T04:00:25.934Z,87.52
2018-07-21T04:03:30.412Z,86.76
2018-07-21T04:06:34.796Z,86.34
2018-07-21T04:09:39.206Z,87.69
2018-07-21T04:12:43.829Z,88.27
2018-07-21T04:15:48.357Z,89.10
2018-07-21T04:18:52.835Z,90.35
2018-07-21T04:21:57.295Z,90.55
2018-07-21T04:25:01.629Z,90.03
2018-07-21T04:28:06.128Z,89.01
2018-07-21T04:31:10.453Z,89.11
2018-07-21T04:34:14.841Z,88.99
2018-07-21T04:37:19.266Z,89.24
2018-07-21T04:40:23.745Z,89.21
2018-07-21T04:43:28.243Z,89.85
2018-07-21T04:46:32.675Z,89.56
2018-07-21T04:49:37.035Z,90.22
2018-07-21T04:52:41.509Z,90.01
2018-07-21T04:55:45.931Z,90.11
2018-07-21T04:58:50.323Z,89.92
2018-07-21T05:01:54.643Z,89.91
2018-07-21T05:04:59.077Z,89.57
2018-07-21T05:08:03.855Z,90.08
2018-07-21T05:11:08.320Z,89.49
2018-07-21T05:14:12.605Z,88.84
2018-07-21T05:17:16.954Z,86.94
2018-07-21T05:20:21.310Z,86.99
2018-07-21T05:23:25.709Z,86.90
2018-07-21T05:26:30.045Z,86.55
2018-07-21T05:29:34.581Z,86.26
2018-07-21T05:32:38.923Z,85.31
2018-07-21T05:35:43.419Z,84.63
2018-07-21T05:38:48.032Z,84.14
2018-07-21T05:41:52.578Z,83.48
2018-07-21T05:44:58.357Z,82.50
2018-07-21T05:48:03.015Z,81.91
2018-07-21T05:51:07.650Z,81.32
2018-07-21T05:54:12.345Z,81.07
2018-07-21T05:57:16.885Z,80.04
2018-07-21T06:00:21.359Z,79.56
2018-07-21T06:03:25.945Z,79.33
2018-07-21T06:06:30.379Z,78.22
2018-07-21T06:09:34.811Z,77.21
2018-07-21T06:12:39.386Z,77.17
2018-07-21T06:15:43.807Z,76.28
2018-07-21T06:18:48.370Z,75.29
2018-07-21T06:21:52.801Z,75.07
2018-07-21T06:24:57.242Z,74.29
2018-07-21T06:28:01.628Z,73.96
2018-07-21T06:31:06.134Z,73.69
2018-07-21T06:34:10.732Z,72.51
2018-07-21T06:37:15.152Z,72.54
2018-07-21T06:40:19.681Z,71.82
2018-07-21T06:43:24.202Z,71.11
2018-07-21T06:46:28.530Z,70.87
2018-07-21T06:49:32.925Z,71.29
2018-07-21T06:52:37.509Z,70.61
2018-07-21T06:55:42.048Z,70.94
2018-07-21T06:58:46.462Z,69.34
2018-07-21T07:01:51.253Z,69.54
2018-07-21T07:04:55.575Z,67.87
2018-07-21T07:08:00.138Z,67.84
2018-07-21T07:11:04.755Z,67.13
2018-07-21T07:14:09.195Z,68.18
2018-07-21T07:17:14.095Z,67.39
2018-07-21T07:20:18.449Z,66.27
2018-07-21T07:23:22.818Z,65.82
2018-07-21T07:26:27.268Z,65.96
2018-07-21T07:29:34.742Z,64.30
2018-07-21T07:32:39.121Z,64.33
2018-07-21T07:35:43.480Z,63.68
2018-07-21T07:38:47.935Z,62.79
2018-07-21T07:41:52.372Z,62.23
2018-07-21T07:44:56.772Z,62.09
2018-07-21T07:48:01.086Z,62.40
2018-07-21T07:51:05.592Z,61.79
2018-07-21T07:54:09.938Z,61.10
2018-07-21T07:57:14.341Z,61.19
2018-07-21T08:00:18.764Z,60.76
2018-07-21T08:03:23.080Z,59.75
2018-07-21T08:06:27.339Z,59.35
2018-07-21T08:09:31.727Z,59.04
2018-07-21T08:12:36.183Z,59.00
2018-07-21T08:15:40.476Z,58.72
2018-07-21T08:18:44.757Z,59.27
2018-07-21T08:21:49.128Z,57.61
2018-07-21T08:24:53.590Z,58.17
2018-07-21T08:27:58.297Z,56.49
2018-07-21T08:31:02.781Z,57.20
2018-07-21T08:34:07.213Z,57.07
2018-07-21T08:37:11.662Z,57.07
2018-07-21T08:40:16.033Z,58.04
2018-07-21T08:43:20.293Z,57.36
2018-07-21T08:46:24.749Z,57.88
2018-07-21T08:49:29.249Z,56.43
2018-07-21T08:52:33.620Z,54.80
2018-07-21T08:55:38.178Z,55.70
2018-07-21T08:58:42.504Z,54.61
2018-07-21T09:01:46.822Z,53.80
2018-07-21T09:04:51.116Z,52.83
2018-07-21T09:07:55.474Z,53.15
2018-07-21T09:10:59.852Z,51.91
2018-07-21T09:14:04.179Z,52.44
2018-07-21T09:17:08.489Z,51.68
2018-07-21T09:20:12.781Z,51.52
2018-07-21T09:23:17.128Z,51.35
2018-07-21T09:26:21.428Z,50.54
2018-07-21T09:29:25.902Z,50.67
2018-07-21T09:32:30.209Z,49.86
2018-07-21T09:35:34.506Z,49.36
2018-07-21T09:38:38.933Z,49.37
2018-07-21T09:41:43.257Z,50.16
2018-07-21T09:44:47.581Z,49.00
2018-07-21T09:47:52.037Z,47.14
2018-07-21T09:50:56.280Z,46.75
2018-07-21T09:54:00.680Z,48.00
2018-07-21T09:57:05.149Z,47.59
2018-07-21T10:00:11.519Z,47.88
2018-07-21T10:03:16.021Z,46.88
2018-07-21T10:06:20.404Z,46.95
2018-07-21T10:09:24.772Z,47.11
2018-07-21T10:12:29.716Z,46.34
2018-07-21T10:15:34.198Z,45.01
2018-07-21T10:18:38.603Z,45.06
2018-07-21T10:21:43.101Z,44.26
2018-07-21T10:24:53.021Z,45.34
2018-07-21T10:28:02.810Z,44.16
2018-07-21T10:31:07.300Z,41.74
2018-07-21T10:34:12.347Z,42.29
2018-07-21T10:37:16.762Z,40.37
2018-07-21T10:40:21.132Z,40.67
2018-07-21T10:43:25.492Z,40.85
2018-07-21T10:46:30.016Z,40.03
2018-07-21T10:49:34.472Z,40.15
2018-07-21T10:52:39.048Z,40.06
2018-07-21T10:55:43.410Z,38.18
2018-07-21T10:58:47.873Z,37.61
2018-07-21T11:01:52.252Z,38.13
2018-07-21T11:04:56.729Z,37.35
2018-07-21T11:08:01.212Z,37.09
2018-07-21T11:11:05.536Z,38.86
2018-07-21T11:14:09.869Z,37.64
2018-07-21T11:17:14.278Z,37.26
2018-07-21T11:20:18.855Z,36.86
2018-07-21T11:23:23.159Z,38.13
2018-07-21T11:26:27.619Z,37.08
2018-07-21T11:29:31.883Z,38.01
2018-07-21T11:32:36.233Z,38.13
2018-07-21T11:35:40.649Z,37.42
2018-07-21T11:38:45.035Z,36.83
2018-07-21T11:41:49.467Z,36.98
2018-07-21T11:44:53.871Z,35.95
2018-07-21T11:47:58.239Z,36.34
2018-07-21T11:51:03.141Z,36.04
2018-07-21T11:54:07.490Z,35.93
2018-07-21T11:57:11.919Z,35.97
2018-07-21T12:00:16.270Z,35.04
2018-07-21T12:03:21.028Z,35.17
2018-07-21T12:06:25.417Z,35.58
2018-07-21T12:09:29.725Z,36.53
2018-07-21T12:12:34.105Z,37.73
2018-07-21T12:15:38.503Z,39.58
2018-07-21T12:18:42.760Z,39.15
2018-07-21T12:21:47.231Z,39.08
2018-07-21T12:24:51.756Z,36.99
2018-07-21T12:27:56.244Z,38.01
2018-07-21T12:31:00.604Z,39.45
2018-07-21T12:34:04.935Z,38.78
2018-07-21T12:37:09.411Z,39.54
2018-07-21T12:40:13.765Z,38.65
2018-07-21T12:43:18.143Z,38.68
2018-07-21T12:46:22.720Z,38.41
2018-07-21T12:49:27.143Z,39.06
2018-07-21T12:52:31.568Z,38.10
2018-07-21T12:55:35.931Z,38.46
2018-07-21T12:58:40.297Z,38.74
2018-07-21T13:01:44.588Z,36.94
2018-07-21T13:04:49.085Z,38.21
2018-07-21T13:07:53.477Z,37.70
2018-07-21T13:10:57.964Z,38.05
2018-07-21T13:14:02.352Z,37.13
2018-07-21T13:17:06.685Z,37.65
2018-07-21T13:20:11.098Z,37.98
2018-07-21T13:23:15.565Z,37.28
2018-07-21T13:26:19.871Z,37.26
2018-07-21T13:29:24.287Z,38.25
2018-07-21T13:32:28.697Z,37.54
2018-07-21T13:35:33.156Z,39.75
2018-07-21T13:38:37.555Z,39.19
2018-07-21T13:41:41.986Z,39.75
2018-07-21T13:44:46.439Z,40.05
2018-07-21T13:47:50.977Z,41.06
2018-07-21T13:50:55.341Z,40.86
2018-07-21T13:53:59.898Z,42.74
2018-07-21T13:57:04.122Z,43.78
2018-07-21T14:00:08.423Z,45.11
2018-07-21T14:03:12.962Z,44.17
2018-07-21T14:06:17.443Z,42.63
2018-07-21T14:09:21.855Z,42.38
2018-07-21T14:12:26.198Z,41.52
2018-07-21T14:15:30.458Z,41.24
2018-07-21T14:18:35.002Z,41.50
2018-07-21T14:21:39.331Z,41.30
2018-07-21T14:24:43.996Z,41.75
2018-07-21T14:27:48.293Z,42.44
2018-07-21T14:30:52.832Z,44.38
2018-07-21T14:33:57.503Z,45.00
2018-07-21T14:37:02.211Z,44.31
2018-07-21T14:40:06.541Z,44.15
2018-07-21T14:43:11.082Z,44.52
2018-07-21T14:46:15.578Z,45.25
2018-07-21T14:49:20.080Z,46.02
2018-07-21T14:52:24.319Z,46.63
2018-07-21T14:55:28.740Z,45.95
2018-07-21T14:58:33.122Z,44.52
2018-07-21T15:01:37.622Z,44.83
2018-07-21T15:04:41.988Z,44.81
2018-07-21T15:07:46.293Z,44.94
2018-07-21T15:10:50.624Z,45.28
2018-07-21T15:13:54.932Z,47.29
2018-07-21T15:16:59.256Z,48.48
2018-07-21T15:20:03.760Z,48.62
2018-07-21T15:23:08.143Z,47.26
2018-07-21T15:26:12.468Z,44.63
2018-07-21T15:29:16.814Z,44.44
2018-07-21T15:32:21.133Z,41.64
2018-07-21T15:35:25.421Z,40.56
2018-07-21T15:38:30.524Z,42.14
2018-07-21T15:41:35.014Z,42.04
2018-07-21T15:44:39.277Z,42.48
2018-07-21T15:47:43.703Z,41.50
2018-07-21T15:50:47.985Z,41.59
2018-07-21T15:53:52.402Z,42.96
2018-07-21T15:56:56.759Z,44.58
2018-07-21T16:00:01.153Z,44.92
2018-07-21T16:03:05.300Z,44.72
2018-07-21T16:06:09.664Z,44.22
2018-07-21T16:09:14.132Z,43.43
2018-07-21T16:12:18.579Z,43.54
2018-07-21T16:15:22.975Z,46.46
2018-07-21T16:18:27.309Z,47.37
2018-07-21T16:21:31.610Z,48.84
2018-07-21T16:24:36.000Z,48.81
2018-07-21T16:27:40.442Z,47.95
2018-07-21T16:30:44.792Z,49.07
2018-07-21T16:33:49.215Z,49.11
2018-07-21T16:36:53.723Z,50.25
2018-07-21T16:39:58.154Z,50.53
2018-07-21T16:43:02.577Z,50.43
2018-07-21T16:46:06.868Z,51.98
2018-07-21T16:49:11.089Z,52.34
2018-07-21T16:52:15.380Z,51.82
2018-07-21T16:55:19.712Z,52.48
2018-07-21T16:58:24.187Z,52.79
2018-07-21T17:01:28.790Z,52.57
2018-07-21T17:04:33.268Z,52.88
2018-07-21T17:07:38.065Z,52.35
2018-07-21T17:10:42.844Z,52.47
2018-07-21T17:13:47.429Z,52.09
2018-07-21T17:16:51.963Z,53.83
2018-07-21T17:19:56.394Z,53.83
2018-07-21T17:23:01.135Z,54.36
2018-07-21T17:26:05.751Z,54.24
2018-07-21T17:29:10.429Z,54.01
2018-07-21T17:32:14.826Z,53.42
2018-07-21T17:35:19.119Z,53.46
2018-07-21T17:38:23.451Z,54.17
2018-07-21T17:41:27.964Z,53.62
2018-07-21T17:44:32.297Z,54.50
2018-07-21T17:47:36.652Z,53.51
2018-07-21T17:50:41.051Z,54.07
2018-07-21T17:53:45.410Z,54.24
2018-07-21T17:56:49.697Z,54.93
2018-07-21T17:59:54.063Z,55.96
2018-07-21T18:02:58.465Z,56.36
2018-07-21T18:06:02.809Z,57.35
2018-07-21T18:09:08.668Z,57.40
2018-07-21T18:12:13.004Z,56.73
2018-07-21T18:15:17.371Z,56.23
2018-07-21T18:18:21.759Z,55.50
2018-07-21T18:21:26.691Z,54.99
2018-07-21T18:24:31.080Z,54.12
2018-07-21T18:27:35.527Z,52.87
2018-07-21T18:30:39.910Z,51.40
2018-07-21T18:33:44.298Z,51.43
2018-07-21T18:36:48.599Z,49.56
2018-07-21T18:39:52.958Z,49.10
2018-07-21T18:42:57.290Z,47.41
2018-07-21T18:46:01.690Z,45.92
2018-07-21T18:49:06.266Z,45.29
2018-07-21T18:52:10.692Z,45.70
2018-07-21T18:55:15.029Z,45.53
2018-07-21T18:58:19.745Z,45.19
2018-07-21T19:01:24.142Z,44.05
2018-07-21T19:04:28.556Z,44.74
2018-07-21T19:07:33.178Z,44.67
2018-07-21T19:10:37.497Z,44.19
2018-07-21T19:13:41.974Z,45.17
2018-07-21T19:16:46.384Z,44.47
2018-07-21T19:19:56.272Z,44.88
2018-07-21T19:23:00.548Z,44.55
2018-07-21T19:26:10.210Z,43.33
2018-07-21T19:29:14.628Z,43.06
2018-07-21T19:32:24.391Z,42.69
2018-07-21T19:35:30.457Z,42.75
2018-07-21T19:38:35.855Z,42.52
2018-07-21T19:41:45.378Z,42.96
2018-07-21T19:44:49.867Z,43.08
2018-07-21T19:47:54.396Z,42.69
2018-07-21T19:50:58.972Z,43.96
2018-07-21T19:54:03.496Z,43.92
2018-07-21T19:57:08.016Z,43.96
2018-07-21T20:00:12.542Z,43.78
2018-07-21T20:03:17.224Z,42.50
2018-07-21T20:06:21.591Z,42.08
2018-07-21T20:09:26.027Z,42.09
2018-07-21T20:12:30.542Z,43.27
2018-07-21T20:15:35.322Z,42.47
2018-07-21T20:18:39.820Z,43.09
2018-07-21T20:21:44.236Z,44.18
2018-07-21T20:24:48.710Z,44.97
2018-07-21T20:27:53.125Z,44.36
2018-07-21T20:30:57.517Z,44.53
2018-07-21T20:34:01.842Z,44.63
2018-07-21T20:37:06.215Z,44.34
2018-07-21T20:40:10.663Z,45.79
2018-07-21T20:43:15.085Z,46.83
2018-07-21T20:46:19.452Z,44.61
2018-07-21T20:49:23.837Z,44.87
2018-07-21T20:52:28.171Z,43.14
2018-07-21T20:55:32.611Z,43.89
2018-07-21T20:58:37.029Z,43.36
2018-07-21T21:01:41.359Z,43.80
2018-07-21T21:04:45.780Z,45.02
2018-07-21T21:07:50.187Z,46.08
2018-07-21T21:10:54.634Z,47.29
2018-07-21T21:13:58.946Z,48.44
2018-07-21T21:17:03.377Z,48.32
2018-07-21T21:20:07.727Z,48.29
2018-07-21T21:23:12.105Z,48.76
2018-07-21T21:26:16.515Z,48.43
2018-07-21T21:29:21.601Z,48.10
2018-07-21T21:32:25.927Z,48.90
2018-07-21T21:35:30.379Z,49.82
2018-07-21T21:38:34.806Z,50.52
2018-07-21T21:41:39.198Z,50.05
2018-07-21T21:44:43.633Z,48.98
2018-07-21T21:47:47.816Z,49.14
2018-07-21T21:50:52.194Z,48.25
2018-07-21T21:53:56.681Z,48.75
2018-07-21T21:57:00.887Z,50.10
2018-07-21T22:00:09.083Z,52.53
2018-07-21T22:03:13.557Z,52.06
2018-07-21T22:06:17.979Z,49.67
2018-07-21T22:09:22.374Z,49.89
2018-07-21T22:12:26.850Z,51.22
2018-07-21T22:15:31.317Z,50.26
2018-07-21T22:18:35.780Z,49.82
2018-07-21T22:21:40.216Z,50.73
2018-07-21T22:24:44.854Z,52.62
2018-07-21T22:27:49.341Z,53.84
2018-07-21T22:30:53.864Z,54.64
2018-07-21T22:33:58.970Z,56.06
2018-07-21T22:37:03.406Z,58.48
2018-07-21T22:40:07.858Z,59.32
2018-07-21T22:43:12.262Z,59.74
2018-07-21T22:46:16.724Z,61.57
2018-07-21T22:49:21.157Z,62.11
2018-07-21T22:52:25.560Z,59.74
2018-07-21T22:55:29.986Z,57.92
2018-07-21T22:58:34.401Z,58.19
2018-07-21T23:01:38.883Z,58.57
2018-07-21T23:04:43.308Z,58.31
2018-07-21T23:07:47.728Z,58.90
2018-07-21T23:10:52.125Z,58.68
2018-07-21T23:13:56.639Z,58.31
2018-07-21T23:17:00.965Z,59.34
2018-07-21T23:20:06.612Z,59.11
2018-07-21T23:23:11.028Z,58.51
2018-07-21T23:26:15.473Z,58.17
2018-07-21T23:29:20.025Z,58.42
2018-07-21T23:32:24.460Z,58.88
2018-07-21T23:35:28.916Z,58.51
2018-07-21T23:38:33.336Z,58.39
2018-07-21T23:41:37.693Z,58.09
2018-07-21T23:44:42.115Z,58.38
2018-07-21T23:47:46.424Z,59.06
2018-07-21T23:50:51.065Z,59.73
2018-07-21T23:53:55.386Z,61.51
2018-07-21T23:56:59.735Z,60.21
